• Join FlightAware (Why Join?)
  • Login
  • US Flag 
03:30PM EDT


 

Airport Tracker/Info


-or-


 

Live Flight TrackerFlight Track Log ✈ TGW246 ✈ 14-Jul-2013 ✈ YSSY / SYD - YBCG / OOL

Flight Track Log - Related Links

Times and Time Zones

All times are in EDT time to prevent confusion due to time zone crossing. See the TGW246 flight status page for this flight to view local times or setup timezone preferences in your user account.

Time Position Orientation Groundspeed Altitude Reporting Facility
EDT Latitude Longitude Course Direction KTS MPH feet Rate Location/Type
03:30AM -33.9440 151.1790 168° South 20 23  Level FlightAware
03:31AM -33.9450 151.1790 180° South 14 16  Level FlightAware
03:31AM -33.9480 151.1790 180° South 18 21  Level FlightAware
03:32AM -33.9500 151.1800 157° South 17 20  Level FlightAware
03:32AM -33.9510 151.1810 140° Southeast 14 16  Level FlightAware
03:32AM -33.9510 151.1830 90° East 17 20  Level FlightAware
03:33AM -33.9500 151.1840 40° Northeast 11 13 60 Level FlightAware
03:33AM -33.9520 151.1860 140° Southeast 16 18 60 Level FlightAware
03:34AM -33.9530 151.1870 140° Southeast 19 22 60 Level FlightAware
03:34AM -33.9540 151.1870 180° South 21 24 60 Level FlightAware
03:34AM -33.9570 151.1880 165° South 26 30 60 Level FlightAware
03:34AM -33.9580 151.1890 140° Southeast 21 24 60 Level FlightAware
03:35AM -33.9600 151.1890 180° South 20 23 60 Level FlightAware
03:35AM -33.9610 151.1890 180° South 22 25 60 Level FlightAware
03:35AM -33.9640 151.1900 165° South 26 30 60 Level FlightAware
03:36AM -33.9670 151.1910 165° South 14 16 60 Level FlightAware
03:36AM -33.9690 151.1910 180° South 19 22 120 Level FlightAware
03:37AM -33.9710 151.1910 180° South 11 13 120 Level FlightAware
03:37AM -33.9710 151.1920 90° East 5 6 180 Level FlightAware
03:38AM -33.9710 151.1930 90° East 9 10 180 Level FlightAware
03:38AM -33.9700 151.1940 40° Northeast 13 15 240 Level FlightAware
03:39AM -33.9670 151.1930 345° North 84 97 480 Level FlightAware
03:39AM -33.9470 151.1880 348° North 153 176 400 1,500 Climbing FlightAware
03:39AM -33.9400 151.1870 353° North 147 169 1,000 3,360 Climbing FlightAware
03:39AM -33.9300 151.1900 14° North 142 163 1,800 2,400 Climbing FlightAware
03:40AM -33.9190 151.1980 31° Northeast 143 165 2,400 1,860 Climbing FlightAware
03:40AM -33.9100 151.2060 36° Northeast 148 170 2,900 1,500 Climbing FlightAware
03:40AM -33.8940 151.2210 38° Northeast 189 217 3,400 1,200 Climbing FlightAware
03:41AM -33.8830 151.2310 37° Northeast 208 239 3,700 1,020 Climbing FlightAware
03:41AM -33.8630 151.2490 37° Northeast 242 278 4,100 960 Climbing FlightAware
03:42AM -33.8290 151.2810 38° Northeast 313 360 4,600 600 Climbing FlightAware
03:42AM -33.8150 151.3170 65° Northeast 323 372 4,700 240 Climbing FlightAware
03:42AM -33.8040 151.3610 73° East 325 374 4,800 960 Climbing FlightAware
03:43AM -33.7760 151.4040 52° Northeast 331 381 5,600 2,100 Climbing FlightAware
03:43AM -33.7550 151.4160 25° Northeast 334 384 6,500 3,720 Climbing FlightAware
03:44AM -33.7180 151.4330 21° North 337 388 8,100 3,720 Climbing FlightAware
03:44AM -33.6800 151.4500 20° North 342 394 9,600 3,000 Climbing FlightAware
03:45AM -33.6120 151.4800 20° North 363 418 11,600 3,120 Climbing FlightAware
03:45AM -33.6044 151.4832 20° North 361 415 12,100 3,780 Climbing Aus ATC (RADAR)
03:45AM -33.5485 151.5081 20° North 369 425 14,000 2,700 Climbing Aus ATC (RADAR)
03:45AM -33.5470 151.5090 20° North 367 422 13,800 2,580 Descending FlightAware
03:46AM -33.4790 151.5390 20° North 368 423 16,100 2,820 Climbing FlightAware
03:47AM -33.4180 151.5660 20° North 378 435 17,600 2,940 Climbing FlightAware
03:47AM -33.3625 151.5901 20° North 382 440 19,400 2,520 Climbing Aus ATC (RADAR)
03:48AM -33.3440 151.5980 20° North 385 443 19,500 2,220 Climbing FlightAware
03:48AM -33.2867 151.6237 20° North 389 448 21,100 2,280 Climbing Aus ATC (RADAR)
03:48AM -33.2880 151.6230 20° North 391 450 20,800 2,040 Descending FlightAware
03:49AM -33.2266 151.6499 20° North 396 456 22,300 1,980 Climbing Aus ATC (RADAR)
03:49AM -33.2190 151.6530 20° North 393 452 22,100 1,920 Descending FlightAware
03:49AM -33.1563 151.6806 20° North 404 465 23,600 1,860 Climbing Aus ATC (RADAR)
03:50AM -33.1400 151.6880 20° North 410 472 23,500 1,200 Descending FlightAware
03:50AM -33.0660 151.7200 20° North 415 478 24,600 1,500 Climbing FlightAware
03:51AM -32.9900 151.7530 20° North 432 497 25,600 1,440 Climbing FlightAware
03:52AM -32.9200 151.7840 20° North 431 496 26,600 1,500 Climbing FlightAware
03:52AM -32.8300 151.8230 20° North 447 514 27,800 2,160 Climbing FlightAware
03:52AM -32.8171 151.8286 20° North 443 510 28,300 2,160 Climbing Aus ATC (RADAR)
03:53AM -32.7607 151.8532 20° North 449 517 29,000 900 Climbing Aus ATC (RADAR)
03:53AM -32.7490 151.8580 20° North 443 510 28,900 1,020 Descending FlightAware
03:54AM -32.6670 151.8940 20° North 459 528 29,800 1,260 Climbing FlightAware
03:54AM -32.5780 151.9320 20° North 465 535 30,700 1,260 Climbing FlightAware
03:55AM -32.4950 151.9680 20° North 460 529 31,600 1,860 Climbing FlightAware
03:56AM -32.4069 152.0056 20° North 459 528 33,300 1,680 Climbing Aus ATC (RADAR)
03:56AM -32.4050 152.0070 20° North 458 527 32,900 900 Descending FlightAware
03:57AM -32.3240 152.0410 20° North 447 514 34,000 1,200 Climbing FlightAware
03:57AM -32.2440 152.0760 20° North 459 528 34,600 1,020 Climbing FlightAware
03:58AM -32.1550 152.1140 20° North 449 517 35,500 1,200 Climbing FlightAware
03:59AM -32.0820 152.1450 20° North 449 517 36,300 1,080 Climbing FlightAware
03:59AM -31.9950 152.1820 20° North 445 512 37,000 1,140 Climbing FlightAware
03:59AM -31.9832 152.1875 20° North 453 521 37,300 600 Climbing Aus ATC (RADAR)
04:00AM -31.9122 152.2171 20° North 445 512 37,400 -480 Climbing Aus ATC (RADAR)
04:00AM -31.9040 152.2210 20° North 442 509 37,000 -600 Descending FlightAware
04:01AM -31.8350 152.2500 20° North 445 512 37,000  Level FlightAware
04:01AM -31.7630 152.2810 20° North 447 514 37,000  Level FlightAware
04:02AM -31.6820 152.3150 20° North 455 524 37,000  Level FlightAware
04:03AM -31.6020 152.3490 20° North 456 525 37,000 240 Level FlightAware
04:03AM -31.5196 152.3834 20° North 451 519 37,400  Climbing Aus ATC (RADAR)
04:03AM -31.5170 152.3850 20° North 455 524 37,000 -180 Descending FlightAware
04:04AM -31.4500 152.4125 20° North 452 520 37,300  Climbing Aus ATC (RADAR)
04:04AM -31.4440 152.4150 20° North 455 524 37,000  Descending FlightAware
04:04AM -31.3809 152.4416 20° North 450 518 37,300  Climbing Aus ATC (RADAR)
04:05AM -31.3600 152.4510 20° North 457 526 37,000 -360 Descending FlightAware
04:05AM -31.2840 152.4820 19° North 457 526 37,000  Level FlightAware
04:06AM -31.2090 152.5140 20° North 456 525 37,000  Level FlightAware
04:07AM -31.1120 152.5540 19° North 457 526 37,000  Level FlightAware
04:07AM -31.0400 152.5840 19° North 457 526 37,000 600 Level FlightAware
04:07AM -31.0318 152.5868 19° North 453 521 37,400  Climbing Aus ATC (RADAR)
04:08AM -30.9600 152.6170 19° North 457 526 37,000  Descending FlightAware
04:08AM -30.9427 152.6245 19° North 451 519 37,400  Climbing Aus ATC (RADAR)
04:09AM -30.8660 152.6570 20° North 457 526 37,000 -60 Descending FlightAware
04:09AM -30.9400 152.6260 200° South 37,000 180 Level FlightAware
04:10AM -30.6727 152.7359 200° South 454 522 37,300 180 Climbing Aus ATC (RADAR)
04:11AM -30.6006 152.7658 20° North 460 529 37,300 -420 Level Aus ATC (RADAR)
04:11AM -30.5870 152.7720 20° North 460 529 37,000 -360 Descending FlightAware
04:12AM -30.5020 152.8070 20° North 461 531 37,000  Level FlightAware
04:13AM -30.4130 152.8440 20° North 461 531 37,000  Level FlightAware
04:13AM -30.3320 152.8770 19° North 461 531 37,000 180 Level FlightAware
04:14AM -30.2498 152.9084 19° North 455 524 37,300  Climbing Aus ATC (RADAR)
04:14AM -30.2420 152.9140 19° North 463 533 37,000 -420 Descending FlightAware
04:15AM -30.1620 152.9470 20° North 464 534 37,000 -120 Level FlightAware
04:15AM -30.0800 152.9800 19° North 465 535 36,900 -780 Descending FlightAware
04:16AM -29.9890 153.0170 19° North 459 528 35,900 -840 Descending FlightAware
04:16AM -29.9782 153.0199 19° North 452 520 36,200 -1,980 Climbing Aus ATC (RADAR)
04:17AM -29.9100 153.0490 19° North 454 522 34,600 -2,280 Descending FlightAware
04:17AM -29.9098 153.0494 19° North 444 511 34,900 -1,500 Climbing Aus ATC (RADAR)
04:17AM -29.8395 153.0764 19° North 445 512 33,700 -2,640 Descending Aus ATC (RADAR)
04:17AM -29.8330 153.0810 19° North 449 517 33,200 -2,460 Descending FlightAware
04:18AM -29.7520 153.1130 19° North 443 510 31,900 -1,680 Descending FlightAware
04:19AM -29.6853 153.1401 19° North 430 495 31,100 -1,980 Descending Aus ATC (RADAR)
04:19AM -29.6760 153.1440 19° North 438 504 30,600 -1,980 Descending FlightAware
04:19AM -29.6182 153.1662 19° North 427 491 30,000 -2,040 Descending Aus ATC (RADAR)
04:19AM -29.6160 153.1680 19° North 433 498 29,600 -1,980 Descending FlightAware
04:20AM -29.5427 153.1956 19° North 422 486 28,700 -1,920 Descending Aus ATC (RADAR)
04:20AM -29.5260 153.2050 19° North 425 489 28,000 -2,280 Descending FlightAware
04:21AM -29.4490 153.2360 19° North 421 484 26,800 -1,920 Descending FlightAware
04:21AM -29.3790 153.2640 19° North 415 478 25,500 -1,920 Descending FlightAware
04:22AM -29.3020 153.2950 19° North 410 472 24,200 -1,500 Descending FlightAware
04:22AM -29.2965 153.2953 19° North 402 463 24,400 -1,500 Climbing Aus ATC (RADAR)
04:23AM -29.2323 153.3222 19° North 407 468 23,300 -2,400 Descending Aus ATC (RADAR)
04:23AM -29.2240 153.3260 19° North 396 456 22,800 -1,920 Descending FlightAware
04:23AM -29.3470 153.2770 199° South 22,100 -1,560 Descending FlightAware
04:24AM -29.1296 153.3625 199° South 388 447 21,400 -2,040 Descending Aus ATC (RADAR)
04:24AM -29.0950 153.3780 199° South 393 452 20,400 -2,340 Descending FlightAware
04:25AM -29.0250 153.4060 19° North 387 445 19,100 -1,920 Descending FlightAware
04:25AM -28.9590 153.4320 19° North 381 438 17,900 -1,860 Descending FlightAware
04:26AM -28.8820 153.4620 19° North 373 429 16,500 -1,620 Descending FlightAware
04:27AM -28.8188 153.4869 19° North 370 426 15,700 -1,800 Descending Aus ATC (RADAR)
04:27AM -28.8190 153.4880 19° North 367 422 15,300 -1,740 Descending FlightAware
04:27AM -28.7632 153.5098 19° North 365 420 14,700 -1,680 Descending Aus ATC (RADAR)
04:27AM -28.7540 153.5130 19° North 360 414 14,200 -2,100 Descending FlightAware
04:28AM -28.6920 153.5380 19° North 350 403 13,100 -900 Descending FlightAware
04:29AM -28.6410 153.5580 19° North 341 392 13,100 -1,620 Level Aus ATC (RADAR)
04:29AM -28.6250 153.5640 19° North 347 399 11,900 -3,060 Descending FlightAware
04:30AM -28.5640 153.5880 19° North 346 398 10,500 -1,260 Descending FlightAware
04:30AM -28.4985 153.6082 19° North 329 379 10,200 -960 Descending Aus ATC (RADAR)
04:30AM -28.4790 153.6110 19° North 305 351 9,600 -1,680 Descending FlightAware
04:31AM -28.4310 153.6180 North 296 341 8,800 -1,440 Descending FlightAware
04:32AM -28.3700 153.6280 North 285 328 7,700 -1,440 Descending FlightAware
04:32AM -28.3510 153.6310 North 283 326 7,400 -1,380 Descending FlightAware
04:33AM -28.3130 153.6370 North 277 319 6,700 -1,500 Descending FlightAware
04:33AM -28.2750 153.6430 North 279 321 5,900 -960 Descending FlightAware
04:34AM -28.2284 153.6422 North 278 320 5,700 -1,080 Descending Aus ATC (RADAR)
04:34AM -28.2300 153.6420 North 278 320 5,300 -2,580 Descending FlightAware
04:34AM -28.1900 153.6310 346° North 278 320 4,300 -1,320 Descending FlightAware
04:35AM -28.1580 153.6230 348° North 261 300 4,100 -660 Descending FlightAware
04:35AM -28.1320 153.6160 347° North 264 304 3,800 -960 Descending FlightAware
04:36AM -28.0950 153.6070 348° North 249 287 3,300 -960 Descending FlightAware
04:36AM -28.0690 153.6010 348° North 231 266 2,900 -1,140 Descending FlightAware
04:36AM -28.0520 153.5890 328° Northwest 231 266 2,500 -960 Descending FlightAware
04:37AM -28.0350 153.5720 319° Northwest 229 264 2,300 -360 Descending FlightAware
04:37AM -28.0120 153.5460 315° West 205 236 2,200 -180 Descending FlightAware
04:37AM -28.0050 153.5300 296° West 196 226 2,200  Level FlightAware
04:38AM -28.0010 153.5040 280° West 187 215 2,200 -120 Level FlightAware
04:38AM -28.0020 153.4840 267° West 174 200 2,100 -300 Descending FlightAware
04:39AM -28.0080 153.4680 247° West 169 194 2,000 -420 Descending FlightAware
04:39AM -28.0280 153.4580 204° Southwest 152 175 1,800 -240 Descending FlightAware
04:40AM -28.0500 153.4610 173° South 153 176 1,800  Level FlightAware
04:40AM -28.0759 153.4698 173° South 161 185 1,800 -480 Level Aus ATC (RADAR)
04:41AM -28.1030 153.4804 161° South 132 152 1,200 -1,200 Descending Aus ATC (RADAR)
04:41AM -28.1070 153.4820 161° South 118 136 700 -840 Descending FlightAware
04:41AM -28.1180 153.4870 158° South 118 136 700 -420 Level FlightAware
04:42AM -28.1574 153.5010 158° South 124 143 100 -600 Descending Aus ATC (RADAR)